Time;durP1;ratioP1;P1;durP2;ratioP2;P2;SDS_P1;SDS_P2;PMS_P1;PMS_P2;Temp;Humidity;BMP_temperature;BMP_pressure;BME280_temperature;BME280_humidity;BME280_pressure;Samples;Min_cycle;Max_cycle;Signal;HPM_P1;HPM_P2
2021/08/27 00:00:09;;;;;;;4.90;2.67;;;14.30;99.90;;;;;;5033074;28;20084;-86
2021/08/27 00:02:36;;;;;;;7.53;2.97;;;14.30;99.90;;;;;;5033404;28;20132;-86
2021/08/27 00:05:04;;;;;;;7.47;3.42;;;14.30;99.90;;;;;;5040700;28;20044;-87
2021/08/27 00:07:31;;;;;;;6.03;3.08;;;14.20;99.90;;;;;;5059189;28;20059;-85
2021/08/27 00:09:58;;;;;;;6.45;3.45;;;14.20;99.90;;;;;;5064970;28;20041;-87
2021/08/27 00:12:25;;;;;;;6.57;3.00;;;14.20;99.90;;;;;;5066414;28;20113;-87
2021/08/27 00:14:54;;;;;;;6.50;3.15;;;14.20;99.90;;;;;;5065402;28;20104;-86
2021/08/27 00:17:29;;;;;;;6.63;3.67;;;14.20;99.90;;;;;;5061409;28;20128;-88
2021/08/27 00:19:56;;;;;;;6.03;3.03;;;14.20;99.90;;;;;;5052700;28;20067;-86
2021/08/27 00:22:24;;;;;;;8.48;3.63;;;14.20;99.90;;;;;;5034059;28;20042;-85
2021/08/27 00:24:51;;;;;;;6.90;3.28;;;14.20;99.90;;;;;;5037491;28;20136;-86
2021/08/27 00:27:18;;;;;;;6.45;3.38;;;14.10;99.90;;;;;;5053187;28;20135;-85
2021/08/27 00:29:45;;;;;;;6.03;3.08;;;14.10;99.90;;;;;;5053855;28;20043;-87
2021/08/27 00:32:14;;;;;;;6.82;3.13;;;14.10;99.90;;;;;;5056821;28;20053;-86
2021/08/27 00:34:41;;;;;;;6.32;2.97;;;14.10;99.90;;;;;;5037475;28;20505;-86
2021/08/27 00:37:08;;;;;;;7.82;2.90;;;14.20;99.90;;;;;;5037183;28;20071;-86
2021/08/27 00:39:35;;;;;;;5.63;2.88;;;14.20;99.90;;;;;;5036774;28;20053;-86
2021/08/27 00:42:02;;;;;;;7.55;3.45;;;14.20;99.90;;;;;;5036918;28;20045;-86
2021/08/27 00:44:29;;;;;;;5.45;2.60;;;14.20;99.90;;;;;;5037236;28;20088;-88
2021/08/27 00:46:56;;;;;;;6.25;2.70;;;14.20;99.90;;;;;;5037193;28;20052;-87
2021/08/27 00:49:25;;;;;;;5.38;2.67;;;14.20;99.90;;;;;;5053899;28;20374;-88
2021/08/27 00:51:52;;;;;;;6.82;2.63;;;14.30;99.90;;;;;;5057116;28;20412;-87
2021/08/27 00:54:19;;;;;;;7.15;3.10;;;14.30;99.90;;;;;;5057180;28;20045;-88
2021/08/27 00:56:46;;;;;;;6.65;3.00;;;14.30;99.90;;;;;;5057035;28;20051;-86
2021/08/27 00:59:13;;;;;;;6.43;2.92;;;14.30;99.90;;;;;;5056768;28;20123;-86
2021/08/27 01:01:42;;;;;;;5.53;2.88;;;14.30;99.90;;;;;;5056077;28;20041;-86
2021/08/27 01:04:09;;;;;;;6.32;3.15;;;14.30;99.90;;;;;;5056638;28;20141;-86
2021/08/27 01:06:42;;;;;;;6.10;2.70;;;14.30;99.90;;;;;;5055621;28;20053;-86
2021/08/27 01:09:15;;;;;;;5.30;2.85;;;14.30;99.90;;;;;;5056429;28;20048;-86
2021/08/27 01:11:48;;;;;;;5.70;2.50;;;14.30;99.90;;;;;;5056445;28;20406;-86
2021/08/27 01:14:24;;;;;;;5.95;2.60;;;14.30;99.90;;;;;;5056579;28;20394;-86
2021/08/27 01:16:56;;;;;;;5.25;2.55;;;14.30;99.90;;;;;;5052361;28;20042;-85
2021/08/27 01:19:58;;;;;;;6.47;3.00;;;14.40;99.90;;;;;;5036424;28;20501;-85
2021/08/27 01:22:57;;;;;;;5.35;2.47;;;14.40;99.90;;;;;;5054963;28;20053;-85
2021/08/27 01:25:25;;;;;;;6.00;3.03;;;14.50;99.90;;;;;;5052068;28;20409;-85
2021/08/27 01:27:54;;;;;;;5.75;2.80;;;14.50;99.90;;;;;;5036585;28;20152;-87
2021/08/27 01:30:26;;;;;;;6.50;3.03;;;14.50;99.90;;;;;;5053573;28;20049;-87
2021/08/27 01:32:58;;;;;;;6.07;3.08;;;14.50;99.90;;;;;;5056636;28;20383;-87
2021/08/27 01:35:30;;;;;;;7.65;3.13;;;14.40;99.90;;;;;;5056151;28;20132;-87
2021/08/27 01:38:01;;;;;;;6.25;3.20;;;14.50;99.90;;;;;;5056008;28;20413;-87
2021/08/27 01:40:29;;;;;;;6.60;3.08;;;14.40;99.90;;;;;;5039929;28;20049;-87
2021/08/27 01:42:58;;;;;;;7.68;3.53;;;14.40;99.90;;;;;;5035560;28;20046;-86
2021/08/27 01:45:25;;;;;;;6.63;3.20;;;14.40;99.90;;;;;;5036167;28;20060;-87
2021/08/27 01:47:53;;;;;;;6.15;3.05;;;14.40;99.90;;;;;;5036140;28;20049;-87
2021/08/27 01:50:21;;;;;;;8.18;2.72;;;14.30;99.90;;;;;;5037942;28;20045;-87
2021/08/27 01:52:53;;;;;;;6.43;2.90;;;14.30;99.90;;;;;;5053029;28;20055;-86
2021/08/27 01:55:21;;;;;;;5.45;3.03;;;14.30;99.90;;;;;;5055711;28;20045;-88
2021/08/27 01:57:49;;;;;;;7.25;3.30;;;14.30;99.90;;;;;;5055119;28;20045;-88
2021/08/27 02:00:18;;;;;;;5.57;3.10;;;14.30;99.90;;;;;;5038558;28;20041;-88
2021/08/27 02:02:46;;;;;;;7.38;2.75;;;14.40;99.90;;;;;;5036248;28;20049;-87
2021/08/27 02:05:14;;;;;;;9.55;3.75;;;14.40;99.90;;;;;;5035691;28;20041;-87
2021/08/27 02:07:41;;;;;;;7.15;3.22;;;14.40;99.90;;;;;;5037176;28;20051;-87
2021/08/27 02:10:10;;;;;;;6.22;3.35;;;14.40;99.90;;;;;;5056746;28;20052;-88
2021/08/27 02:12:37;;;;;;;7.57;3.65;;;14.30;99.90;;;;;;5055533;28;20410;-87
2021/08/27 02:15:07;;;;;;;6.93;3.25;;;14.30;99.90;;;;;;5055209;28;20045;-86
2021/08/27 02:17:34;;;;;;;7.63;3.20;;;14.30;99.90;;;;;;5055105;28;20068;-86
2021/08/27 02:20:01;;;;;;;5.07;2.90;;;14.30;99.90;;;;;;5055030;28;20045;-86
2021/08/27 02:22:32;;;;;;;6.63;3.08;;;14.30;99.90;;;;;;5035220;28;20045;-85
2021/08/27 02:25:04;;;;;;;6.03;3.30;;;14.30;99.90;;;;;;5035481;28;20052;-89
2021/08/27 02:27:36;;;;;;;6.78;3.45;;;14.40;99.90;;;;;;5035107;28;20145;-85
2021/08/27 02:30:04;;;;;;;6.03;2.90;;;14.40;99.90;;;;;;5041117;28;20131;-86
2021/08/27 02:32:31;;;;;;;6.93;3.30;;;14.40;99.90;;;;;;5054643;28;20049;-85
2021/08/27 02:35:02;;;;;;;6.53;3.35;;;14.40;99.90;;;;;;5055016;28;20040;-85
2021/08/27 02:37:33;;;;;;;5.78;3.05;;;14.40;99.90;;;;;;5054637;28;20044;-86
2021/08/27 02:40:01;;;;;;;6.53;3.47;;;14.40;99.90;;;;;;5052407;28;20497;-86
2021/08/27 02:42:31;;;;;;;6.97;3.15;;;14.40;99.90;;;;;;5054411;28;20375;-85
2021/08/27 02:45:00;;;;;;;8.95;3.45;;;14.40;99.90;;;;;;5054475;28;20041;-86
2021/08/27 02:47:28;;;;;;;6.07;3.15;;;14.30;99.90;;;;;;5054836;28;20052;-86
2021/08/27 02:49:55;;;;;;;7.05;3.33;;;14.30;99.90;;;;;;5037408;28;20049;-85
2021/08/27 02:52:29;;;;;;;6.45;3.20;;;14.30;99.90;;;;;;5034543;28;20057;-86
2021/08/27 02:55:03;;;;;;;6.63;3.30;;;14.30;99.90;;;;;;5034654;28;20067;-85
2021/08/27 02:57:37;;;;;;;7.45;3.50;;;14.30;99.90;;;;;;5034413;28;20045;-85
2021/08/27 03:00:08;;;;;;;6.30;3.30;;;14.30;99.90;;;;;;5034336;28;20099;-85
2021/08/27 03:02:36;;;;;;;5.75;3.10;;;14.30;99.90;;;;;;5036572;28;20056;-86
2021/08/27 03:05:09;;;;;;;5.10;2.90;;;14.30;99.90;;;;;;5050562;28;20208;-86
2021/08/27 03:07:49;;;;;;;5.57;3.10;;;14.30;99.90;;;;;;5050729;28;20398;-85
2021/08/27 03:10:26;;;;;;;8.57;3.45;;;14.40;99.90;;;;;;5050546;28;20525;-85
2021/08/27 03:13:04;;;;;;;6.70;3.25;;;14.40;99.90;;;;;;5050548;28;20057;-85
2021/08/27 03:15:41;;;;;;;6.10;2.78;;;14.40;99.90;;;;;;5050957;28;20490;-85
2021/08/27 03:18:15;;;;;;;5.90;2.80;;;14.30;99.90;;;;;;5050349;28;20056;-85
2021/08/27 03:20:49;;;;;;;5.47;2.87;;;14.40;99.90;;;;;;5048457;28;20056;-85
2021/08/27 03:23:19;;;;;;;5.20;2.60;;;14.40;99.90;;;;;;5050933;28;20053;-85
2021/08/27 03:25:48;;;;;;;5.70;2.70;;;14.40;99.90;;;;;;5050592;28;20048;-84
2021/08/27 03:28:20;;;;;;;6.90;2.90;;;14.30;99.90;;;;;;5050143;28;20053;-85
2021/08/27 03:30:51;;;;;;;6.32;2.90;;;14.30;99.90;;;;;;5030466;28;20135;-85
2021/08/27 03:33:24;;;;;;;6.15;3.25;;;14.30;99.90;;;;;;5030668;28;20053;-85
2021/08/27 03:35:53;;;;;;;6.75;2.85;;;14.30;99.90;;;;;;5030478;28;20487;-86
2021/08/27 03:38:23;;;;;;;7.90;2.70;;;14.30;99.90;;;;;;5032395;28;20061;-84
2021/08/27 03:40:51;;;;;;;8.07;3.30;;;14.30;99.90;;;;;;5050153;28;20392;-84
2021/08/27 03:43:19;;;;;;;6.72;3.42;;;14.30;99.90;;;;;;5050067;28;20135;-80
2021/08/27 03:45:50;;;;;;;6.22;3.10;;;14.30;99.90;;;;;;5050174;28;20049;-80
2021/08/27 03:48:18;;;;;;;6.95;3.35;;;14.30;99.90;;;;;;5032129;28;20045;-80
2021/08/27 03:50:45;;;;;;;5.82;2.70;;;14.30;99.90;;;;;;5042880;28;20550;-80
2021/08/27 03:53:13;;;;;;;5.30;2.80;;;14.40;99.90;;;;;;5029835;28;20200;-81
2021/08/27 03:55:40;;;;;;;6.53;3.08;;;14.40;99.90;;;;;;5029723;28;20140;-81
2021/08/27 03:58:09;;;;;;;5.65;2.97;;;14.40;99.90;;;;;;5032114;28;20073;-80
2021/08/27 04:00:36;;;;;;;7.00;3.00;;;14.40;99.90;;;;;;5050090;28;20473;-80
2021/08/27 04:03:05;;;;;;;5.22;2.67;;;14.40;99.90;;;;;;5052957;28;20131;-80
2021/08/27 04:05:32;;;;;;;5.43;3.10;;;14.40;99.90;;;;;;5052572;28;20380;-80
2021/08/27 04:07:59;;;;;;;7.15;3.45;;;14.40;99.90;;;;;;5053067;28;20048;-81
2021/08/27 04:10:26;;;;;;;7.15;3.40;;;14.40;99.90;;;;;;5037802;28;20041;-81
2021/08/27 04:12:53;;;;;;;6.60;3.47;;;14.40;99.90;;;;;;5032999;28;20145;-80
2021/08/27 04:15:22;;;;;;;7.13;3.30;;;14.30;99.90;;;;;;5033213;28;20056;-80
2021/08/27 04:17:50;;;;;;;7.53;3.55;;;14.30;99.90;;;;;;5033143;28;20115;-80
2021/08/27 04:20:19;;;;;;;8.00;3.40;;;14.20;99.90;;;;;;5033211;28;20046;-86
2021/08/27 04:22:48;;;;;;;9.05;3.35;;;14.20;99.90;;;;;;5033127;28;20402;-83
2021/08/27 04:25:15;;;;;;;6.43;3.33;;;14.20;99.90;;;;;;5032792;28;20430;-83
2021/08/27 04:27:42;;;;;;;6.57;3.33;;;14.20;99.90;;;;;;5033044;28;20144;-82
2021/08/27 04:30:10;;;;;;;7.57;3.67;;;14.20;99.90;;;;;;5043239;28;20041;-87
2021/08/27 04:32:37;;;;;;;6.72;3.63;;;14.10;99.90;;;;;;5053046;28;20055;-87
2021/08/27 04:35:05;;;;;;;7.32;3.13;;;14.10;99.90;;;;;;5043423;28;20052;-87
2021/08/27 04:37:33;;;;;;;7.95;3.30;;;14.10;99.90;;;;;;5032562;28;20050;-87
2021/08/27 04:40:00;;;;;;;5.68;3.50;;;14.10;99.90;;;;;;5032989;28;20479;-86
2021/08/27 04:42:28;;;;;;;6.57;3.70;;;14.10;99.90;;;;;;5033004;28;20048;-87
2021/08/27 04:44:55;;;;;;;6.65;3.70;;;14.10;99.90;;;;;;5033384;28;20049;-87
2021/08/27 04:47:22;;;;;;;7.78;3.95;;;14.10;99.90;;;;;;5033780;28;20479;-86
2021/08/27 04:49:49;;;;;;;7.32;3.90;;;14.00;99.90;;;;;;5033075;28;20136;-86
2021/08/27 04:52:16;;;;;;;8.38;4.45;;;14.00;99.90;;;;;;5032802;28;20483;-86
2021/08/27 04:54:45;;;;;;;7.35;4.28;;;13.90;99.90;;;;;;5033204;28;20056;-86
2021/08/27 04:57:12;;;;;;;7.97;3.55;;;13.80;99.90;;;;;;5033041;28;20140;-86
2021/08/27 04:59:42;;;;;;;9.00;4.43;;;13.80;99.90;;;;;;5033088;28;20056;-86
2021/08/27 05:02:09;;;;;;;6.28;4.05;;;13.80;99.90;;;;;;5033176;28;20115;-86
2021/08/27 05:04:36;;;;;;;8.43;4.25;;;13.80;99.90;;;;;;5032844;28;20053;-87
2021/08/27 05:07:04;;;;;;;8.10;4.00;;;13.80;99.90;;;;;;5033080;28;20052;-86
2021/08/27 05:09:31;;;;;;;6.93;3.60;;;13.70;99.90;;;;;;5033050;28;20051;-86
2021/08/27 05:12:00;;;;;;;9.65;4.53;;;13.70;99.90;;;;;;5032827;28;20045;-87
2021/08/27 05:14:27;;;;;;;9.25;4.60;;;13.70;99.90;;;;;;5032693;28;20052;-86
2021/08/27 05:16:54;;;;;;;10.48;4.72;;;13.70;99.90;;;;;;5035177;28;20049;-86
2021/08/27 05:19:21;;;;;;;8.38;4.30;;;13.70;99.90;;;;;;5056195;28;20044;-86
2021/08/27 05:21:48;;;;;;;8.38;4.72;;;13.70;99.90;;;;;;5056333;28;20505;-86
2021/08/27 05:24:15;;;;;;;8.85;4.80;;;13.70;99.90;;;;;;5056435;28;20055;-87
2021/08/27 05:26:42;;;;;;;9.00;5.13;;;13.70;99.90;;;;;;5056250;28;20413;-86
2021/08/27 05:29:10;;;;;;;8.32;5.18;;;13.70;99.90;;;;;;5056224;28;20500;-87
2021/08/27 05:31:37;;;;;;;9.00;4.72;;;13.70;99.90;;;;;;5056714;28;20055;-87
2021/08/27 05:34:06;;;;;;;7.72;4.80;;;13.70;99.90;;;;;;5056548;28;20123;-87
2021/08/27 05:36:34;;;;;;;9.30;5.10;;;13.70;99.90;;;;;;5056408;28;20518;-86
2021/08/27 05:39:01;;;;;;;8.20;4.20;;;13.70;99.90;;;;;;5056185;28;20051;-86
2021/08/27 05:41:29;;;;;;;10.32;4.82;;;13.70;99.90;;;;;;5056083;28;20045;-86
2021/08/27 05:43:56;;;;;;;9.55;4.60;;;13.80;99.90;;;;;;5055932;28;20041;-86
2021/08/27 05:46:24;;;;;;;6.72;4.30;;;13.80;99.90;;;;;;5055875;28;20061;-86
2021/08/27 05:48:51;;;;;;;8.93;5.18;;;13.80;99.90;;;;;;5055997;28;20055;-86
2021/08/27 05:51:18;;;;;;;8.70;4.97;;;13.90;99.90;;;;;;5056004;28;20052;-87
2021/08/27 05:53:45;;;;;;;9.48;5.03;;;13.90;99.90;;;;;;5056530;28;20387;-87
2021/08/27 05:56:12;;;;;;;8.88;4.90;;;13.90;99.90;;;;;;5057472;28;20049;-87
2021/08/27 05:58:39;;;;;;;8.80;4.80;;;13.90;99.90;;;;;;5057588;28;20045;-87
2021/08/27 06:01:06;;;;;;;8.48;5.32;;;13.90;99.90;;;;;;5056017;28;20041;-87
2021/08/27 06:03:35;;;;;;;7.18;4.32;;;13.90;99.90;;;;;;5056910;28;20140;-87
2021/08/27 06:06:02;;;;;;;8.32;4.38;;;13.90;99.90;;;;;;5056213;28;20131;-87
2021/08/27 06:08:29;;;;;;;8.13;4.45;;;13.90;99.90;;;;;;5056447;28;20049;-87
2021/08/27 06:10:56;;;;;;;8.30;4.40;;;14.00;99.90;;;;;;5056244;28;20383;-87
2021/08/27 06:13:23;;;;;;;9.27;5.25;;;14.00;99.90;;;;;;5056325;28;20055;-87
2021/08/27 06:15:50;;;;;;;9.85;5.60;;;14.00;99.90;;;;;;5056862;28;20084;-86
2021/08/27 06:18:17;;;;;;;10.02;6.05;;;14.00;99.90;;;;;;5056208;28;20049;-86
2021/08/27 06:20:47;;;;;;;11.45;5.72;;;14.00;99.90;;;;;;5055493;28;20055;-87
2021/08/27 06:23:14;;;;;;;9.20;5.32;;;14.00;99.90;;;;;;5057987;28;20053;-87
2021/08/27 06:25:41;;;;;;;8.85;5.40;;;14.00;99.90;;;;;;5056418;28;20049;-86
2021/08/27 06:28:08;;;;;;;10.35;5.40;;;14.00;99.90;;;;;;5055336;28;20053;-87
2021/08/27 06:30:35;;;;;;;11.82;5.05;;;14.00;99.90;;;;;;5055667;28;20049;-87
2021/08/27 06:33:03;;;;;;;9.07;5.00;;;14.00;99.90;;;;;;5054188;28;20399;-87
2021/08/27 06:35:31;;;;;;;7.70;4.80;;;14.00;99.90;;;;;;5054876;28;20410;-86
2021/08/27 06:40:45;;;;;;;9.35;6.13;;;14.10;99.90;;;;;;5054653;28;20505;-86
2021/08/27 06:43:12;;;;;;;13.65;8.32;;;14.10;99.90;;;;;;5054670;28;20053;-86
2021/08/27 06:45:39;;;;;;;12.18;7.75;;;14.10;99.90;;;;;;5054555;28;20541;-86
2021/08/27 06:48:07;;;;;;;10.60;6.97;;;14.10;99.90;;;;;;5054510;28;20041;-86
2021/08/27 06:50:37;;;;;;;10.23;6.70;;;14.10;99.90;;;;;;5054427;28;20052;-86
2021/08/27 06:53:07;;;;;;;8.85;5.97;;;14.20;99.90;;;;;;5054317;28;20401;-87
2021/08/27 06:55:35;;;;;;;11.35;7.43;;;14.20;99.90;;;;;;5054433;28;20048;-88
2021/08/27 06:58:02;;;;;;;11.02;6.57;;;14.20;99.90;;;;;;5054645;28;20136;-87
2021/08/27 07:00:30;;;;;;;11.38;6.65;;;14.20;99.90;;;;;;5054342;28;20486;-86
2021/08/27 07:02:57;;;;;;;12.13;7.13;;;14.20;99.90;;;;;;5054318;28;20051;-87
2021/08/27 07:05:25;;;;;;;12.10;6.63;;;14.30;99.90;;;;;;5054159;28;20049;-86
2021/08/27 07:07:52;;;;;;;10.02;6.65;;;14.30;99.90;;;;;;5054360;28;20048;-87
2021/08/27 07:10:20;;;;;;;9.52;6.70;;;14.40;99.90;;;;;;5054418;28;20132;-87
2021/08/27 07:12:48;;;;;;;9.07;6.18;;;14.40;99.90;;;;;;5054019;28;20052;-86
2021/08/27 07:15:16;;;;;;;8.98;5.22;;;14.50;99.90;;;;;;5053954;28;20080;-87
2021/08/27 07:17:44;;;;;;;8.18;5.68;;;14.50;99.90;;;;;;5054002;28;20045;-86
2021/08/27 07:20:13;;;;;;;9.00;6.07;;;14.60;99.90;;;;;;5053899;28;20040;-86
2021/08/27 07:22:41;;;;;;;9.65;5.53;;;14.60;99.90;;;;;;5055214;28;20056;-87
2021/08/27 07:25:11;;;;;;;8.43;6.25;;;14.70;99.90;;;;;;5054026;28;20069;-87
2021/08/27 07:27:39;;;;;;;9.63;6.72;;;14.80;99.90;;;;;;5053917;28;20577;-87
2021/08/27 07:30:09;;;;;;;12.35;7.35;;;14.80;99.90;;;;;;5053768;28;20414;-87
2021/08/27 07:32:37;;;;;;;9.15;6.35;;;14.80;99.90;;;;;;5053736;28;20055;-87
2021/08/27 07:35:05;;;;;;;11.25;6.55;;;14.90;99.90;;;;;;5053712;28;20065;-87
2021/08/27 07:37:33;;;;;;;11.80;7.47;;;14.90;99.90;;;;;;5053442;28;20569;-87
2021/08/27 07:40:00;;;;;;;11.80;7.30;;;14.90;99.90;;;;;;5053351;28;20049;-87
2021/08/27 07:42:28;;;;;;;10.63;6.82;;;14.80;99.90;;;;;;5053684;28;20474;-87
2021/08/27 07:44:56;;;;;;;9.27;6.15;;;14.80;99.90;;;;;;5053616;28;20049;-88
2021/08/27 07:47:23;;;;;;;8.10;5.20;;;14.70;99.90;;;;;;5053591;28;20052;-88
2021/08/27 07:49:50;;;;;;;9.27;6.25;;;14.70;99.90;;;;;;5053557;28;20049;-88
2021/08/27 07:52:17;;;;;;;8.40;5.53;;;14.70;99.90;;;;;;5053587;28;20443;-88
2021/08/27 07:54:44;;;;;;;9.13;5.32;;;14.80;99.90;;;;;;5053349;28;20063;-88
2021/08/27 07:57:11;;;;;;;7.75;4.90;;;14.80;99.90;;;;;;5053660;28;20057;-88
2021/08/27 07:59:38;;;;;;;9.95;4.72;;;14.90;99.90;;;;;;5053098;28;20500;-87
2021/08/27 08:02:08;;;;;;;6.82;4.18;;;14.90;99.90;;;;;;5053478;28;20041;-87
2021/08/27 08:04:35;;;;;;;6.40;4.05;;;14.90;99.90;;;;;;5053137;28;20041;-88
2021/08/27 08:07:03;;;;;;;6.93;2.85;;;15.00;99.90;;;;;;5053479;28;20135;-88
2021/08/27 08:09:29;;;;;;;5.40;2.50;;;15.00;99.90;;;;;;5053541;28;20129;-87
2021/08/27 08:11:56;;;;;;;5.28;1.83;;;15.10;99.90;;;;;;5053338;28;20135;-88
2021/08/27 08:14:24;;;;;;;4.35;1.52;;;15.10;99.90;;;;;;5054045;28;20139;-88
2021/08/27 08:16:51;;;;;;;6.05;2.00;;;15.20;99.90;;;;;;5053292;28;20124;-87
2021/08/27 08:19:19;;;;;;;4.72;1.92;;;15.20;99.90;;;;;;5053281;28;20051;-87
2021/08/27 08:21:46;;;;;;;5.28;1.83;;;15.30;99.80;;;;;;5053150;28;20044;-87
2021/08/27 08:24:14;;;;;;;5.43;2.40;;;15.30;99.80;;;;;;5053096;28;20041;-88
2021/08/27 08:26:41;;;;;;;5.60;2.58;;;15.40;99.90;;;;;;5053128;28;20055;-88
2021/08/27 08:29:08;;;;;;;5.30;2.50;;;15.50;99.90;;;;;;5053322;28;20040;-88
2021/08/27 08:31:35;;;;;;;6.22;2.40;;;15.50;99.90;;;;;;5053124;28;20387;-88
2021/08/27 08:34:02;;;;;;;5.32;2.00;;;15.60;99.90;;;;;;5052824;28;20071;-88
2021/08/27 08:36:31;;;;;;;6.95;2.03;;;15.60;99.90;;;;;;5052968;28;20055;-88
2021/08/27 08:38:58;;;;;;;4.80;1.63;;;15.60;99.90;;;;;;5052674;28;20389;-88
2021/08/27 08:41:25;;;;;;;3.35;1.40;;;15.70;99.90;;;;;;5052818;28;20471;-88
2021/08/27 08:43:52;;;;;;;3.80;1.50;;;15.80;99.70;;;;;;5053049;28;20060;-88
2021/08/27 08:46:22;;;;;;;4.28;1.42;;;15.90;98.20;;;;;;5052973;28;20045;-88
2021/08/27 08:48:52;;;;;;;5.07;1.50;;;15.90;98.00;;;;;;5052941;28;20041;-88
2021/08/27 08:51:24;;;;;;;5.18;1.50;;;15.90;97.70;;;;;;5055276;28;20500;-88
2021/08/27 08:53:53;;;;;;;3.78;1.10;;;15.90;97.70;;;;;;5056989;28;20049;-88
2021/08/27 08:56:21;;;;;;;3.63;1.20;;;16.00;97.80;;;;;;5057053;28;20049;-88
2021/08/27 08:58:48;;;;;;;3.47;1.35;;;16.00;97.40;;;;;;5057186;28;20378;-88
2021/08/27 09:01:17;;;;;;;4.05;1.27;;;16.10;97.20;;;;;;5056820;28;20059;-88
2021/08/27 09:03:46;;;;;;;3.20;1.10;;;16.10;97.20;;;;;;5056658;28;20057;-87
2021/08/27 09:06:13;;;;;;;2.90;1.15;;;16.20;96.80;;;;;;5056411;28;20573;-87
2021/08/27 09:08:47;;;;;;;3.05;1.00;;;16.20;96.70;;;;;;5056988;28;20055;-87
2021/08/27 09:11:18;;;;;;;3.90;1.10;;;16.30;96.70;;;;;;5057476;28;20052;-87
2021/08/27 09:13:47;;;;;;;3.85;1.63;;;16.30;95.90;;;;;;5056386;28;20500;-87
2021/08/27 09:16:15;;;;;;;3.42;1.20;;;16.30;95.70;;;;;;5056538;28;20041;-87
2021/08/27 09:18:45;;;;;;;2.75;1.10;;;16.30;95.50;;;;;;5055305;28;20485;-88
2021/08/27 09:21:40;;;;;;;3.85;1.40;;;16.30;95.70;;;;;;5042224;28;20136;-86
2021/08/27 09:24:28;;;;;;;3.17;1.10;;;16.30;95.60;;;;;;5048421;28;20482;-91
2021/08/27 09:26:59;;;;;;;3.13;1.20;;;16.40;95.40;;;;;;5033822;28;20053;-89
2021/08/27 09:29:41;;;;;;;5.25;1.45;;;16.40;94.60;;;;;;5047325;28;20060;-90
2021/08/27 09:32:27;;;;;;;3.10;1.10;;;16.40;93.80;;;;;;5055662;28;20075;-90
2021/08/27 09:35:10;;;;;;;3.60;1.20;;;16.40;93.30;;;;;;5050562;28;20119;-88
2021/08/27 09:37:49;;;;;;;5.30;1.30;;;16.40;93.40;;;;;;5036585;28;20111;-89
2021/08/27 09:40:20;;;;;;;3.28;1.00;;;16.40;93.30;;;;;;5041940;28;20049;-88
2021/08/27 09:42:51;;;;;;;3.88;1.15;;;16.40;93.90;;;;;;5042980;28;20492;-89
2021/08/27 09:45:20;;;;;;;3.22;1.27;;;16.40;93.90;;;;;;5046334;28;20052;-89
2021/08/27 09:48:09;;;;;;;4.53;1.20;;;16.40;94.00;;;;;;5040121;28;20054;-89
2021/08/27 09:50:38;;;;;;;2.25;1.00;;;16.50;93.60;;;;;;5036549;28;20133;-87
2021/08/27 09:53:07;;;;;;;2.97;1.00;;;16.50;93.90;;;;;;5036490;28;20054;-91
2021/08/27 09:55:36;;;;;;;2.47;0.90;;;16.70;94.20;;;;;;5038853;28;20132;-93
2021/08/27 09:58:11;;;;;;;3.65;1.02;;;16.80;92.50;;;;;;5040537;28;20136;-90
2021/08/27 10:00:39;;;;;;;2.83;0.90;;;16.80;92.70;;;;;;5039660;28;20063;-90
2021/08/27 10:03:21;;;;;;;3.22;0.95;;;16.90;92.30;;;;;;5038030;28;20081;-91
2021/08/27 10:05:49;;;;;;;3.38;1.05;;;17.00;92.40;;;;;;5037911;28;20061;-90
2021/08/27 10:08:21;;;;;;;3.80;0.93;;;17.00;92.80;;;;;;5041319;28;20127;-87
2021/08/27 10:10:53;;;;;;;2.97;1.05;;;17.10;93.10;;;;;;5049469;28;20095;-89
2021/08/27 10:13:23;;;;;;;2.67;1.00;;;17.10;93.20;;;;;;5037871;28;20042;-91
2021/08/27 10:15:52;;;;;;;3.55;0.90;;;17.10;92.30;;;;;;5035984;28;20084;-90
2021/08/27 10:18:19;;;;;;;3.42;0.90;;;17.00;91.60;;;;;;5050449;28;20049;-89
2021/08/27 10:20:48;;;;;;;2.22;0.70;;;16.90;92.00;;;;;;5044543;28;20063;-87
2021/08/27 10:23:18;;;;;;;2.97;1.00;;;16.90;92.10;;;;;;5035039;28;20137;-86
2021/08/27 10:25:46;;;;;;;2.30;0.85;;;16.90;92.00;;;;;;5037558;28;20049;-89
2021/08/27 10:28:15;;;;;;;3.22;1.00;;;16.90;92.20;;;;;;5044748;28;20502;-89
2021/08/27 10:30:55;;;;;;;2.83;1.00;;;16.90;92.50;;;;;;5043924;28;20095;-88
2021/08/27 10:34:07;;;;;;;4.75;1.20;;;16.90;92.60;;;;;;5039711;28;20467;-88
2021/08/27 10:36:58;;;;;;;4.97;1.02;;;16.90;92.20;;;;;;5045875;28;20037;-90
2021/08/27 10:39:41;;;;;;;2.65;0.93;;;16.80;91.70;;;;;;5036675;28;20144;-89
2021/08/27 10:42:10;;;;;;;4.03;1.10;;;16.80;91.10;;;;;;5035538;28;20095;-89
2021/08/27 10:44:50;;;;;;;3.33;1.00;;;16.80;90.70;;;;;;5035088;28;20056;-89
2021/08/27 10:47:20;;;;;;;1.80;0.73;;;16.80;90.80;;;;;;5035105;28;20077;-89
2021/08/27 10:50:02;;;;;;;3.55;0.98;;;17.00;90.90;;;;;;5034830;28;20046;-89
2021/08/27 10:52:36;;;;;;;2.00;0.80;;;17.00;91.00;;;;;;5035055;28;20060;-89
2021/08/27 10:55:21;;;;;;;2.38;0.90;;;17.10;90.90;;;;;;5034924;28;20107;-88
2021/08/27 10:57:57;;;;;;;2.40;0.80;;;17.10;90.90;;;;;;5035000;28;20118;-88
2021/08/27 11:00:50;;;;;;;2.80;0.98;;;17.20;90.80;;;;;;5035036;28;20103;-89
2021/08/27 11:03:20;;;;;;;2.13;0.95;;;17.20;91.00;;;;;;5032876;28;20399;-88
2021/08/27 11:05:50;;;;;;;2.78;0.80;;;17.20;91.10;;;;;;5035255;28;20049;-91
2021/08/27 11:08:31;;;;;;;3.08;1.10;;;17.20;90.70;;;;;;5036040;28;20487;-89
2021/08/27 11:11:23;;;;;;;3.22;0.98;;;17.20;90.80;;;;;;5039614;28;20056;-90
2021/08/27 11:13:51;;;;;;;4.40;1.10;;;17.10;90.80;;;;;;5033244;28;20049;-91
2021/08/27 11:16:26;;;;;;;2.00;0.90;;;17.10;90.40;;;;;;5033203;28;20057;-89
2021/08/27 11:18:55;;;;;;;2.38;0.95;;;17.10;90.70;;;;;;5034467;28;20128;-89
2021/08/27 11:21:40;;;;;;;3.40;0.90;;;17.10;90.60;;;;;;5034765;28;20051;-89
2021/08/27 11:24:16;;;;;;;3.40;1.00;;;17.00;90.80;;;;;;5034501;28;20058;-89
2021/08/27 11:26:47;;;;;;;3.83;1.20;;;17.10;91.30;;;;;;5034651;28;20077;-90
2021/08/27 11:29:32;;;;;;;5.22;1.23;;;17.10;91.10;;;;;;5034494;28;20049;-90
2021/08/27 11:32:09;;;;;;;4.45;1.23;;;17.10;91.20;;;;;;5033269;28;20124;-89
2021/08/27 11:35:07;;;;;;;4.35;1.17;;;17.20;90.60;;;;;;5034376;28;20144;-88
2021/08/27 11:37:37;;;;;;;3.95;1.50;;;17.20;90.10;;;;;;5034356;28;20433;-89
2021/08/27 11:40:07;;;;;;;3.72;1.40;;;17.20;89.00;;;;;;5034583;28;20049;-89
2021/08/27 11:42:34;;;;;;;2.78;1.30;;;17.20;90.20;;;;;;5017739;28;20055;-89
2021/08/27 11:45:06;;;;;;;4.05;1.45;;;17.20;90.20;;;;;;5034086;28;20140;-89
2021/08/27 11:47:41;;;;;;;3.35;1.30;;;17.20;88.80;;;;;;5038763;28;20072;-89
2021/08/27 11:50:12;;;;;;;4.05;1.35;;;17.20;88.90;;;;;;5040993;28;20046;-89
2021/08/27 11:52:42;;;;;;;3.65;1.40;;;17.20;88.70;;;;;;5034228;28;20045;-89
2021/08/27 11:55:14;;;;;;;5.65;1.30;;;17.40;89.90;;;;;;5034246;28;20399;-90
2021/08/27 11:57:51;;;;;;;5.53;1.65;;;17.60;89.50;;;;;;5034891;28;20046;-89
2021/08/27 12:00:20;;;;;;;3.42;1.13;;;17.70;88.10;;;;;;5033254;28;20050;-90
2021/08/27 12:02:53;;;;;;;3.80;1.30;;;17.80;88.80;;;;;;5035033;28;20049;-89
2021/08/27 12:05:22;;;;;;;4.15;1.27;;;17.90;85.70;;;;;;5034031;28;20103;-89
2021/08/27 12:07:52;;;;;;;2.72;1.20;;;18.00;82.90;;;;;;5033642;28;20081;-90
2021/08/27 12:10:20;;;;;;;3.22;1.20;;;18.20;84.10;;;;;;5033557;28;20087;-89
2021/08/27 12:12:49;;;;;;;4.75;1.17;;;18.30;85.70;;;;;;5033181;28;20202;-89
2021/08/27 12:15:19;;;;;;;5.10;1.52;;;18.40;84.60;;;;;;5033361;28;20052;-89
2021/08/27 12:17:57;;;;;;;4.90;1.60;;;18.40;83.40;;;;;;5034011;28;20464;-89
2021/08/27 12:20:29;;;;;;;3.20;1.10;;;18.50;84.50;;;;;;5036017;28;20045;-89
2021/08/27 12:23:05;;;;;;;5.95;1.40;;;18.50;85.20;;;;;;5033902;28;20041;-89
2021/08/27 12:25:38;;;;;;;3.47;1.33;;;18.50;85.10;;;;;;5033394;28;20124;-89
2021/08/27 12:28:06;;;;;;;5.13;1.63;;;18.60;85.00;;;;;;5033867;28;20144;-91
2021/08/27 12:30:33;;;;;;;4.10;1.70;;;18.60;83.90;;;;;;5033863;28;20049;-89
2021/08/27 12:33:03;;;;;;;2.78;1.13;;;18.60;83.80;;;;;;5033268;28;20100;-87
2021/08/27 12:35:35;;;;;;;3.47;1.20;;;18.70;84.90;;;;;;5033692;28;20081;-89
2021/08/27 12:38:03;;;;;;;5.05;1.30;;;18.70;85.40;;;;;;5032292;28;20483;-90
2021/08/27 12:40:33;;;;;;;3.17;1.20;;;19.00;86.70;;;;;;5033795;28;20447;-89
2021/08/27 12:43:05;;;;;;;3.17;1.08;;;19.20;87.90;;;;;;5034508;28;20054;-87
2021/08/27 12:45:47;;;;;;;5.07;1.40;;;19.40;87.10;;;;;;5046166;28;20546;-88
2021/08/27 12:48:18;;;;;;;3.78;1.33;;;19.50;85.50;;;;;;5039250;28;20439;-89
2021/08/27 12:50:53;;;;;;;3.88;1.17;;;19.50;82.00;;;;;;5035073;28;20551;-88
2021/08/27 12:53:30;;;;;;;4.70;1.30;;;19.40;80.20;;;;;;5041518;28;20090;-89
2021/08/27 12:56:16;;;;;;;5.22;1.50;;;19.30;80.50;;;;;;5053294;28;20051;-92
2021/08/27 12:58:46;;;;;;;3.70;1.40;;;19.30;80.10;;;;;;5043746;28;20137;-89
2021/08/27 13:01:19;;;;;;;3.67;1.27;;;19.20;78.30;;;;;;5052238;28;20394;-89
2021/08/27 13:03:50;;;;;;;4.28;1.40;;;19.10;78.40;;;;;;5052812;28;20128;-89